Atlantic Island — C4VM2 — position and weather

sailwx.info

Track history (hours):
 
Tides and Currents Weather Stations Pressure Air Temp Water Temp Dewpoint Dewpoint Depression Visibility Wind Speed Wind Dir Waves Ship Positions

Atlantic Island

Last reported at 2016-May-01 06:17 UTC. Time now 2016-May-03 04:52 UTC.
Position N 35°57' W 005°35'.

Length 95 m; draft 6 m.

Type: Cargo ship. MMSI: 210754000.

Date/timePositionNaut miles runAvg speedWind from/ knotsBaromVisibWave heightAir tempDewpointWater temp
2016-May-01 06:17N 35°57' W 005°35'7 9.2
2016-May-01 05:34N 35°59' W 005°27'8 8.1
2016-May-01 04:33N 36°01' W 005°17'216 9.6
2016-Apr-30 06:03N 37°14' W 001°03'610.3
2016-Apr-30 05:28N 37°18' W 000°58'1010.4
2016-Apr-30 04:33N 37°24' W 000°49'1110.2
2016-Apr-30 03:28N 37°31' W 000°38'910.1
2016-Apr-30 02:31N 37°39' W 000°30'1010.1
2016-Apr-30 01:33N 37°47' W 000°23'1010.1
2016-Apr-30 00:31N 37°56' W 000°16'90 8.2
2016-Apr-29 13:31N 39°26' W 000°18'1 1.3
2016-Apr-29 12:32N 39°27' W 000°19'0 0.0
2016-Apr-29 06:30N 39°27' W 000°19'0 0.0
2016-Apr-29 04:06N 39°27' W 000°19'0 0.0
2016-Apr-29 03:33N 39°27' W 000°19'0 0.0
2016-Apr-29 02:33N 39°27' W 000°19'0 0.0
2016-Apr-29 01:33N 39°27' W 000°19'0 0.0
2016-Apr-28 20:12N 39°27' W 000°19'0 0.0
2016-Apr-28 19:33N 39°27' W 000°19'0 0.0
2016-Apr-28 18:21N 39°27' W 000°19'0 0.0
2016-Apr-28 17:30N 39°27' W 000°19'0 0.0
2016-Apr-28 16:24N 39°27' W 000°19'0 0.0
2016-Apr-28 14:21N 39°27' W 000°19'0 0.0
2016-Apr-28 13:30N 39°27' W 000°19'0 0.0
2016-Apr-28 12:33N 39°27' W 000°19'0 0.0
2016-Apr-28 09:27N 39°27' W 000°19'0 0.0
2016-Apr-28 08:33N 39°27' W 000°19'0 0.0
2016-Apr-28 07:23N 39°27' W 000°19'3 3.4
2016-Apr-28 06:33N 39°25' W 000°16'8 7.9
2016-Apr-28 05:29N 39°31' W 000°08'7410.6
2016-Apr-27 22:33N 40°21' E 001°02'1010.2
2016-Apr-27 21:32N 40°28' E 001°12'1110.2
2016-Apr-27 20:26N 40°36' E 001°23'1010.4
2016-Apr-27 19:26N 40°43' E 001°33'910.5
2016-Apr-27 18:32N 40°49' E 001°43'195 9.7
2016-Apr-26 22:32N 43°14' E 004°38'10 9.9
2016-Apr-26 21:33N 43°14' E 004°51'8 7.7
2016-Apr-26 20:33N 43°20' E 004°59'5 5.0
2016-Apr-26 19:33N 43°24' E 005°01'0 0.0
2016-Apr-26 18:33N 43°24' E 005°01'0 0.0
2016-Apr-26 17:33N 43°24' E 005°01'0 0.0
2016-Apr-26 16:29N 43°24' E 005°01'0 0.0
2016-Apr-26 15:32N 43°24' E 005°01'0 0.0
2016-Apr-26 14:32N 43°24' E 005°01'0 0.0
2016-Apr-26 13:32N 43°24' E 005°01'0 0.0
2016-Apr-26 12:32N 43°24' E 005°01'0 0.0
2016-Apr-26 11:32N 43°24' E 005°01'0 0.0
2016-Apr-26 10:32N 43°24' E 005°01'0 0.0
2016-Apr-26 09:32N 43°24' E 005°01'0 0.0
2016-Apr-26 08:32N 43°24' E 005°01'0 0.0
2016-Apr-26 07:32N 43°24' E 005°01'0 0.0
2016-Apr-26 06:32N 43°24' E 005°01'0 0.0
2016-Apr-26 05:32N 43°24' E 005°01'0 0.0
2016-Apr-26 04:29N 43°24' E 005°01'0 0.0
2016-Apr-26 03:32N 43°24' E 005°01'0 0.0
2016-Apr-26 02:32N 43°24' E 005°01'0 0.0
2016-Apr-26 01:32N 43°24' E 005°01'0 0.0
2016-Apr-26 00:32N 43°24' E 005°01'0 0.0
2016-Apr-25 23:32N 43°24' E 005°01'0 0.0
2016-Apr-25 22:32N 43°24' E 005°01'0 0.0
2016-Apr-25 21:32N 43°24' E 005°01'0 0.0
2016-Apr-25 20:32N 43°24' E 005°01'0 0.0
2016-Apr-25 19:32N 43°24' E 005°01'0 0.0
2016-Apr-25 18:33N 43°24' E 005°01'0 0.0
2016-Apr-25 17:33N 43°24' E 005°01'0 0.0
2016-Apr-25 16:33N 43°24' E 005°01'0 0.0
2016-Apr-25 15:33N 43°24' E 005°01'0 0.0
2016-Apr-25 14:33N 43°24' E 005°01'0 0.0
2016-Apr-25 13:33N 43°24' E 005°01'0 0.0
2016-Apr-25 12:33N 43°24' E 005°01'0 0.0
2016-Apr-25 11:33N 43°24' E 005°01'0 0.1
2016-Apr-25 10:33N 43°24' E 005°01'5 4.6
2016-Apr-25 09:33N 43°20' E 004°59'8 7.8
2016-Apr-25 08:33N 43°12' E 005°02'164 6.5
2016-Apr-24 07:12N 41°02' E 002°48'810.0
2016-Apr-24 06:25N 40°56' E 002°41'910.2
2016-Apr-24 05:33N 40°49' E 002°35'1010.1
2016-Apr-24 04:33N 40°40' E 002°26'1010.2
2016-Apr-24 03:33N 40°32' E 002°18'1010.3
2016-Apr-24 02:33N 40°24' E 002°10'10 9.9
2016-Apr-24 01:33N 40°16' E 002°02'1010.0
2016-Apr-24 00:33N 40°08' E 001°54'1010.1
2016-Apr-23 23:33N 40°00' E 001°46'10 9.9
2016-Apr-23 22:33N 39°53' E 001°38'12110.1
2016-Apr-23 10:33N 38°15' E 000°05'1110.7
2016-Apr-23 09:32N 38°06' W 000°03'1111.0
2016-Apr-23 08:33N 37°57' W 000°10'1010.3
2016-Apr-23 07:33N 37°48' W 000°17'1010.3
2016-Apr-23 06:33N 37°40' W 000°25'1010.0
2016-Apr-23 05:33N 37°32' W 000°33'1010.0
2016-Apr-23 04:33N 37°26' W 000°42'1010.0
2016-Apr-23 03:33N 37°19' W 000°52'1210.0
2016-Apr-23 02:23N 37°11' W 001°02'1010.4
2016-Apr-23 01:25N 37°04' W 001°11'21110.1
2016-Apr-22 04:33N 35°54' W 005°19'0 0.0
2016-Apr-22 03:33N 35°54' W 005°19'0 0.0
2016-Apr-22 02:33N 35°54' W 005°19'0 0.0
2016-Apr-22 01:33N 35°54' W 005°19'0 0.0
2016-Apr-22 00:33N 35°54' W 005°19'2 1.8
2016-Apr-21 23:33N 35°56' W 005°20'  
Track history (hours):
 
Tides and Currents Weather Stations Pressure Air Temp Water Temp Dewpoint Dewpoint Depression Visibility Wind Speed Wind Dir Waves Ship Positions

Atlantic Island

Last reported at 2016-May-01 06:17 UTC. Time now 2016-May-03 04:52 UTC.
Position N 35°57' W 005°35'.

Length 95 m; draft 6 m.

Type: Cargo ship. MMSI: 210754000.

Date/timePositionNaut miles runAvg speedWind from/ knotsBaromVisibWave heightAir tempDewpointWater temp
2016-May-01 06:17N 35°57' W 005°35'7 9.2
2016-May-01 05:34N 35°59' W 005°27'8 8.1
2016-May-01 04:33N 36°01' W 005°17'216 9.6
2016-Apr-30 06:03N 37°14' W 001°03'610.3
2016-Apr-30 05:28N 37°18' W 000°58'1010.4
2016-Apr-30 04:33N 37°24' W 000°49'1110.2
2016-Apr-30 03:28N 37°31' W 000°38'910.1
2016-Apr-30 02:31N 37°39' W 000°30'1010.1
2016-Apr-30 01:33N 37°47' W 000°23'1010.1
2016-Apr-30 00:31N 37°56' W 000°16'90 8.2
2016-Apr-29 13:31N 39°26' W 000°18'1 1.3
2016-Apr-29 12:32N 39°27' W 000°19'0 0.0
2016-Apr-29 06:30N 39°27' W 000°19'0 0.0
2016-Apr-29 04:06N 39°27' W 000°19'0 0.0
2016-Apr-29 03:33N 39°27' W 000°19'0 0.0
2016-Apr-29 02:33N 39°27' W 000°19'0 0.0
2016-Apr-29 01:33N 39°27' W 000°19'0 0.0
2016-Apr-28 20:12N 39°27' W 000°19'0 0.0
2016-Apr-28 19:33N 39°27' W 000°19'0 0.0
2016-Apr-28 18:21N 39°27' W 000°19'0 0.0
2016-Apr-28 17:30N 39°27' W 000°19'0 0.0
2016-Apr-28 16:24N 39°27' W 000°19'0 0.0
2016-Apr-28 14:21N 39°27' W 000°19'0 0.0
2016-Apr-28 13:30N 39°27' W 000°19'0 0.0
2016-Apr-28 12:33N 39°27' W 000°19'0 0.0
2016-Apr-28 09:27N 39°27' W 000°19'0 0.0
2016-Apr-28 08:33N 39°27' W 000°19'0 0.0
2016-Apr-28 07:23N 39°27' W 000°19'3 3.4
2016-Apr-28 06:33N 39°25' W 000°16'8 7.9
2016-Apr-28 05:29N 39°31' W 000°08'7410.6
2016-Apr-27 22:33N 40°21' E 001°02'1010.2
2016-Apr-27 21:32N 40°28' E 001°12'1110.2
2016-Apr-27 20:26N 40°36' E 001°23'1010.4
2016-Apr-27 19:26N 40°43' E 001°33'910.5
2016-Apr-27 18:32N 40°49' E 001°43'195 9.7
2016-Apr-26 22:32N 43°14' E 004°38'10 9.9
2016-Apr-26 21:33N 43°14' E 004°51'8 7.7
2016-Apr-26 20:33N 43°20' E 004°59'5 5.0
2016-Apr-26 19:33N 43°24' E 005°01'0 0.0
2016-Apr-26 18:33N 43°24' E 005°01'0 0.0
2016-Apr-26 17:33N 43°24' E 005°01'0 0.0
2016-Apr-26 16:29N 43°24' E 005°01'0 0.0
2016-Apr-26 15:32N 43°24' E 005°01'0 0.0
2016-Apr-26 14:32N 43°24' E 005°01'0 0.0
2016-Apr-26 13:32N 43°24' E 005°01'0 0.0
2016-Apr-26 12:32N 43°24' E 005°01'0 0.0
2016-Apr-26 11:32N 43°24' E 005°01'0 0.0
2016-Apr-26 10:32N 43°24' E 005°01'0 0.0
2016-Apr-26 09:32N 43°24' E 005°01'0 0.0
2016-Apr-26 08:32N 43°24' E 005°01'0 0.0
2016-Apr-26 07:32N 43°24' E 005°01'0 0.0
2016-Apr-26 06:32N 43°24' E 005°01'0 0.0
2016-Apr-26 05:32N 43°24' E 005°01'0 0.0
2016-Apr-26 04:29N 43°24' E 005°01'0 0.0
2016-Apr-26 03:32N 43°24' E 005°01'0 0.0
2016-Apr-26 02:32N 43°24' E 005°01'0 0.0
2016-Apr-26 01:32N 43°24' E 005°01'0 0.0
2016-Apr-26 00:32N 43°24' E 005°01'0 0.0
2016-Apr-25 23:32N 43°24' E 005°01'0 0.0
2016-Apr-25 22:32N 43°24' E 005°01'0 0.0
2016-Apr-25 21:32N 43°24' E 005°01'0 0.0
2016-Apr-25 20:32N 43°24' E 005°01'0 0.0
2016-Apr-25 19:32N 43°24' E 005°01'0 0.0
2016-Apr-25 18:33N 43°24' E 005°01'0 0.0
2016-Apr-25 17:33N 43°24' E 005°01'0 0.0
2016-Apr-25 16:33N 43°24' E 005°01'0 0.0
2016-Apr-25 15:33N 43°24' E 005°01'0 0.0
2016-Apr-25 14:33N 43°24' E 005°01'0 0.0
2016-Apr-25 13:33N 43°24' E 005°01'0 0.0
2016-Apr-25 12:33N 43°24' E 005°01'0 0.0
2016-Apr-25 11:33N 43°24' E 005°01'0 0.1
2016-Apr-25 10:33N 43°24' E 005°01'5 4.6
2016-Apr-25 09:33N 43°20' E 004°59'8 7.8
2016-Apr-25 08:33N 43°12' E 005°02'164 6.5
2016-Apr-24 07:12N 41°02' E 002°48'810.0
2016-Apr-24 06:25N 40°56' E 002°41'910.2
2016-Apr-24 05:33N 40°49' E 002°35'1010.1
2016-Apr-24 04:33N 40°40' E 002°26'1010.2
2016-Apr-24 03:33N 40°32' E 002°18'1010.3
2016-Apr-24 02:33N 40°24' E 002°10'10 9.9
2016-Apr-24 01:33N 40°16' E 002°02'1010.0
2016-Apr-24 00:33N 40°08' E 001°54'1010.1
2016-Apr-23 23:33N 40°00' E 001°46'10 9.9
2016-Apr-23 22:33N 39°53' E 001°38'12110.1
2016-Apr-23 10:33N 38°15' E 000°05'1110.7
2016-Apr-23 09:32N 38°06' W 000°03'1111.0
2016-Apr-23 08:33N 37°57' W 000°10'1010.3
2016-Apr-23 07:33N 37°48' W 000°17'1010.3
2016-Apr-23 06:33N 37°40' W 000°25'1010.0
2016-Apr-23 05:33N 37°32' W 000°33'1010.0
2016-Apr-23 04:33N 37°26' W 000°42'1010.0
2016-Apr-23 03:33N 37°19' W 000°52'1210.0
2016-Apr-23 02:23N 37°11' W 001°02'1010.4
2016-Apr-23 01:25N 37°04' W 001°11'21110.1
2016-Apr-22 04:33N 35°54' W 005°19'0 0.0
2016-Apr-22 03:33N 35°54' W 005°19'0 0.0
2016-Apr-22 02:33N 35°54' W 005°19'0 0.0
2016-Apr-22 01:33N 35°54' W 005°19'0 0.0
2016-Apr-22 00:33N 35°54' W 005°19'2 1.8
2016-Apr-21 23:33N 35°56' W 005°20'  

Dump ship's entire track history